sensor_id;sensor_type;location;lat;lon;timestamp;temperature;humidity
4699;DHT22;33708;49.466;11.176;2022-12-07T00:01:19;4.30;99.90
4699;DHT22;33708;49.466;11.176;2022-12-07T00:03:47;4.40;99.90
4699;DHT22;33708;49.466;11.176;2022-12-07T00:06:14;4.50;99.90
4699;DHT22;33708;49.466;11.176;2022-12-07T00:08:40;4.50;99.90
4699;DHT22;33708;49.466;11.176;2022-12-07T00:11:15;4.50;99.90
4699;DHT22;33708;49.466;11.176;2022-12-07T00:13:41;4.70;99.90
4699;DHT22;33708;49.466;11.176;2022-12-07T00:16:16;4.60;99.90
4699;DHT22;33708;49.466;11.176;2022-12-07T00:18:42;4.50;99.90
4699;DHT22;33708;49.466;11.176;2022-12-07T00:21:17;4.40;99.90
4699;DHT22;33708;49.466;11.176;2022-12-07T00:23:45;4.50;99.90
4699;DHT22;33708;49.466;11.176;2022-12-07T00:26:16;4.50;99.90
4699;DHT22;33708;49.466;11.176;2022-12-07T00:28:48;4.50;99.90
4699;DHT22;33708;49.466;11.176;2022-12-07T00:31:15;4.50;99.90
4699;DHT22;33708;49.466;11.176;2022-12-07T00:33:41;4.50;99.90
4699;DHT22;33708;49.466;11.176;2022-12-07T00:36:10;4.50;99.90
4699;DHT22;33708;49.466;11.176;2022-12-07T00:38:38;4.50;99.90
4699;DHT22;33708;49.466;11.176;2022-12-07T00:41:12;4.50;99.90
4699;DHT22;33708;49.466;11.176;2022-12-07T00:43:39;4.60;99.90
4699;DHT22;33708;49.466;11.176;2022-12-07T00:46:05;4.40;99.90
4699;DHT22;33708;49.466;11.176;2022-12-07T00:48:30;4.30;99.90
4699;DHT22;33708;49.466;11.176;2022-12-07T00:50:56;4.20;99.90
4699;DHT22;33708;49.466;11.176;2022-12-07T00:53:22;4.20;99.90
4699;DHT22;33708;49.466;11.176;2022-12-07T00:55:48;4.30;99.90
4699;DHT22;33708;49.466;11.176;2022-12-07T00:58:14;4.30;99.90
4699;DHT22;33708;49.466;11.176;2022-12-07T01:00:41;4.30;99.90
4699;DHT22;33708;49.466;11.176;2022-12-07T01:03:09;4.30;99.90
4699;DHT22;33708;49.466;11.176;2022-12-07T01:05:36;4.30;99.90
4699;DHT22;33708;49.466;11.176;2022-12-07T01:08:02;4.30;99.90
4699;DHT22;33708;49.466;11.176;2022-12-07T01:10:29;4.40;99.90
4699;DHT22;33708;49.466;11.176;2022-12-07T01:12:56;4.50;99.90
4699;DHT22;33708;49.466;11.176;2022-12-07T01:15:22;4.50;99.90
4699;DHT22;33708;49.466;11.176;2022-12-07T01:17:47;4.50;99.90
4699;DHT22;33708;49.466;11.176;2022-12-07T01:20:14;4.50;99.90
4699;DHT22;33708;49.466;11.176;2022-12-07T01:22:42;4.40;99.90
4699;DHT22;33708;49.466;11.176;2022-12-07T01:25:08;4.40;99.90
4699;DHT22;33708;49.466;11.176;2022-12-07T01:27:34;4.50;99.90
4699;DHT22;33708;49.466;11.176;2022-12-07T01:30:01;4.40;99.90
4699;DHT22;33708;49.466;11.176;2022-12-07T01:32:27;4.20;99.90
4699;DHT22;33708;49.466;11.176;2022-12-07T01:34:53;4.30;99.90
4699;DHT22;33708;49.466;11.176;2022-12-07T01:37:18;4.40;99.90
4699;DHT22;33708;49.466;11.176;2022-12-07T01:39:44;4.30;99.90
4699;DHT22;33708;49.466;11.176;2022-12-07T01:42:12;4.50;99.90
4699;DHT22;33708;49.466;11.176;2022-12-07T01:45:34;4.30;99.90
4699;DHT22;33708;49.466;11.176;2022-12-07T01:48:03;4.40;99.90
4699;DHT22;33708;49.466;11.176;2022-12-07T01:50:31;4.40;99.90
4699;DHT22;33708;49.466;11.176;2022-12-07T01:53:01;4.40;99.90
4699;DHT22;33708;49.466;11.176;2022-12-07T01:55:31;4.50;99.90
4699;DHT22;33708;49.466;11.176;2022-12-07T01:57:59;4.50;99.90
4699;DHT22;33708;49.466;11.176;2022-12-07T02:00:27;4.50;99.90
4699;DHT22;33708;49.466;11.176;2022-12-07T02:05:35;4.50;99.90
4699;DHT22;33708;49.466;11.176;2022-12-07T02:08:06;4.60;99.90
4699;DHT22;33708;49.466;11.176;2022-12-07T02:10:34;4.40;99.90
4699;DHT22;33708;49.466;11.176;2022-12-07T02:13:20;4.40;99.90
4699;DHT22;33708;49.466;11.176;2022-12-07T02:15:59;4.50;99.90
4699;DHT22;33708;49.466;11.176;2022-12-07T02:27:07;4.40;99.90
4699;DHT22;33708;49.466;11.176;2022-12-07T02:30:15;4.50;99.90
4699;DHT22;33708;49.466;11.176;2022-12-07T02:36:19;4.50;99.90
4699;DHT22;33708;49.466;11.176;2022-12-07T02:43:30;4.60;99.90
4699;DHT22;33708;49.466;11.176;2022-12-07T02:46:04;4.60;99.90
4699;DHT22;33708;49.466;11.176;2022-12-07T02:48:33;4.40;99.90
4699;DHT22;33708;49.466;11.176;2022-12-07T02:50:59;4.40;99.90
4699;DHT22;33708;49.466;11.176;2022-12-07T02:53:36;4.30;99.90
4699;DHT22;33708;49.466;11.176;2022-12-07T02:56:27;4.30;99.90
4699;DHT22;33708;49.466;11.176;2022-12-07T03:01:50;4.20;99.90
4699;DHT22;33708;49.466;11.176;2022-12-07T03:10:33;4.10;99.90
4699;DHT22;33708;49.466;11.176;2022-12-07T03:18:33;3.60;99.90
4699;DHT22;33708;49.466;11.176;2022-12-07T03:21:06;3.30;99.90
4699;DHT22;33708;49.466;11.176;2022-12-07T03:23:35;3.20;99.90
4699;DHT22;33708;49.466;11.176;2022-12-07T03:26:02;3.10;99.90
4699;DHT22;33708;49.466;11.176;2022-12-07T03:28:36;3.20;99.90
4699;DHT22;33708;49.466;11.176;2022-12-07T03:33:56;3.30;99.90
4699;DHT22;33708;49.466;11.176;2022-12-07T03:36:29;3.30;99.90
4699;DHT22;33708;49.466;11.176;2022-12-07T03:39:04;3.40;99.90
4699;DHT22;33708;49.466;11.176;2022-12-07T03:41:34;3.70;99.90
4699;DHT22;33708;49.466;11.176;2022-12-07T03:44:01;3.50;99.90
4699;DHT22;33708;49.466;11.176;2022-12-07T03:52:02;3.20;99.90
4699;DHT22;33708;49.466;11.176;2022-12-07T03:54:47;3.20;99.90
4699;DHT22;33708;49.466;11.176;2022-12-07T03:57:14;3.10;99.90
4699;DHT22;33708;49.466;11.176;2022-12-07T03:59:41;2.80;99.90
4699;DHT22;33708;49.466;11.176;2022-12-07T04:02:08;2.40;99.90
4699;DHT22;33708;49.466;11.176;2022-12-07T04:04:36;2.20;99.90
4699;DHT22;33708;49.466;11.176;2022-12-07T04:07:02;2.00;99.90
4699;DHT22;33708;49.466;11.176;2022-12-07T04:09:28;1.90;99.90
4699;DHT22;33708;49.466;11.176;2022-12-07T04:11:53;1.80;99.90
4699;DHT22;33708;49.466;11.176;2022-12-07T04:14:19;1.70;99.90
4699;DHT22;33708;49.466;11.176;2022-12-07T04:16:50;1.60;99.90
4699;DHT22;33708;49.466;11.176;2022-12-07T04:19:18;1.50;99.90
4699;DHT22;33708;49.466;11.176;2022-12-07T04:21:44;1.40;99.90
4699;DHT22;33708;49.466;11.176;2022-12-07T04:24:11;1.40;99.90
4699;DHT22;33708;49.466;11.176;2022-12-07T04:26:37;1.40;99.90
4699;DHT22;33708;49.466;11.176;2022-12-07T04:29:03;1.40;99.90
4699;DHT22;33708;49.466;11.176;2022-12-07T04:31:28;1.30;99.90
4699;DHT22;33708;49.466;11.176;2022-12-07T04:33:54;1.30;99.90
4699;DHT22;33708;49.466;11.176;2022-12-07T04:36:20;1.30;99.90
4699;DHT22;33708;49.466;11.176;2022-12-07T04:38:46;1.40;99.90
4699;DHT22;33708;49.466;11.176;2022-12-07T04:41:12;1.60;99.90
4699;DHT22;33708;49.466;11.176;2022-12-07T04:43:38;1.90;99.90
4699;DHT22;33708;49.466;11.176;2022-12-07T04:46:04;1.70;99.90
4699;DHT22;33708;49.466;11.176;2022-12-07T04:48:30;1.80;99.90
4699;DHT22;33708;49.466;11.176;2022-12-07T04:50:55;2.00;99.90
4699;DHT22;33708;49.466;11.176;2022-12-07T04:53:21;2.10;99.90
4699;DHT22;33708;49.466;11.176;2022-12-07T04:55:47;2.30;99.90
4699;DHT22;33708;49.466;11.176;2022-12-07T04:58:13;2.80;99.90
4699;DHT22;33708;49.466;11.176;2022-12-07T05:00:39;2.50;99.90
4699;DHT22;33708;49.466;11.176;2022-12-07T05:03:05;2.60;99.90
4699;DHT22;33708;49.466;11.176;2022-12-07T05:05:30;2.60;99.90
4699;DHT22;33708;49.466;11.176;2022-12-07T05:07:57;2.70;99.90
4699;DHT22;33708;49.466;11.176;2022-12-07T05:10:22;2.70;99.90
4699;DHT22;33708;49.466;11.176;2022-12-07T05:12:48;2.70;99.90
4699;DHT22;33708;49.466;11.176;2022-12-07T05:15:15;2.70;99.90
4699;DHT22;33708;49.466;11.176;2022-12-07T05:17:41;2.80;99.90
4699;DHT22;33708;49.466;11.176;2022-12-07T05:20:07;2.90;99.90
4699;DHT22;33708;49.466;11.176;2022-12-07T05:22:34;3.00;99.90
4699;DHT22;33708;49.466;11.176;2022-12-07T05:24:59;3.00;99.90
4699;DHT22;33708;49.466;11.176;2022-12-07T05:27:25;3.00;99.90
4699;DHT22;33708;49.466;11.176;2022-12-07T05:29:51;3.10;99.90
4699;DHT22;33708;49.466;11.176;2022-12-07T05:32:17;3.10;99.90
4699;DHT22;33708;49.466;11.176;2022-12-07T05:34:43;3.10;99.90
4699;DHT22;33708;49.466;11.176;2022-12-07T05:37:08;3.20;99.90
4699;DHT22;33708;49.466;11.176;2022-12-07T05:39:34;3.40;99.90
4699;DHT22;33708;49.466;11.176;2022-12-07T05:41:59;3.40;99.90
4699;DHT22;33708;49.466;11.176;2022-12-07T05:44:38;3.50;99.90
4699;DHT22;33708;49.466;11.176;2022-12-07T05:47:04;3.00;99.90
4699;DHT22;33708;49.466;11.176;2022-12-07T05:49:30;3.40;99.90
4699;DHT22;33708;49.466;11.176;2022-12-07T05:51:55;3.40;99.90
4699;DHT22;33708;49.466;11.176;2022-12-07T05:54:21;3.40;99.90
4699;DHT22;33708;49.466;11.176;2022-12-07T05:56:47;3.30;99.90
4699;DHT22;33708;49.466;11.176;2022-12-07T05:59:13;3.30;99.90
4699;DHT22;33708;49.466;11.176;2022-12-07T06:01:56;3.20;99.90
4699;DHT22;33708;49.466;11.176;2022-12-07T06:04:23;3.20;99.90
4699;DHT22;33708;49.466;11.176;2022-12-07T06:06:50;3.40;99.90
4699;DHT22;33708;49.466;11.176;2022-12-07T06:09:16;3.20;99.90
4699;DHT22;33708;49.466;11.176;2022-12-07T06:11:43;3.20;99.90
4699;DHT22;33708;49.466;11.176;2022-12-07T06:14:28;3.10;99.90
4699;DHT22;33708;49.466;11.176;2022-12-07T06:16:53;3.10;99.90
4699;DHT22;33708;49.466;11.176;2022-12-07T06:19:20;3.10;99.90
4699;DHT22;33708;49.466;11.176;2022-12-07T06:21:46;3.10;99.90
4699;DHT22;33708;49.466;11.176;2022-12-07T06:24:13;3.20;99.90
4699;DHT22;33708;49.466;11.176;2022-12-07T06:26:40;3.50;99.90
4699;DHT22;33708;49.466;11.176;2022-12-07T06:29:05;3.30;99.90
4699;DHT22;33708;49.466;11.176;2022-12-07T06:31:31;3.20;99.90
4699;DHT22;33708;49.466;11.176;2022-12-07T06:34:06;3.30;99.90
4699;DHT22;33708;49.466;11.176;2022-12-07T06:36:32;3.20;99.90
4699;DHT22;33708;49.466;11.176;2022-12-07T06:38:58;3.40;99.90
4699;DHT22;33708;49.466;11.176;2022-12-07T06:41:24;3.30;99.90
4699;DHT22;33708;49.466;11.176;2022-12-07T06:43:50;3.40;99.90
4699;DHT22;33708;49.466;11.176;2022-12-07T06:46:16;3.40;99.90
4699;DHT22;33708;49.466;11.176;2022-12-07T06:48:42;3.40;99.90
4699;DHT22;33708;49.466;11.176;2022-12-07T06:51:09;3.30;99.90
4699;DHT22;33708;49.466;11.176;2022-12-07T06:53:35;3.10;99.90
4699;DHT22;33708;49.466;11.176;2022-12-07T06:56:01;3.30;99.90
4699;DHT22;33708;49.466;11.176;2022-12-07T06:58:27;3.60;99.90
4699;DHT22;33708;49.466;11.176;2022-12-07T07:00:53;3.60;99.90
4699;DHT22;33708;49.466;11.176;2022-12-07T07:03:19;3.50;99.90
4699;DHT22;33708;49.466;11.176;2022-12-07T07:05:44;3.40;99.90
4699;DHT22;33708;49.466;11.176;2022-12-07T07:08:11;3.40;99.90
4699;DHT22;33708;49.466;11.176;2022-12-07T07:10:37;3.40;99.90
4699;DHT22;33708;49.466;11.176;2022-12-07T07:13:03;3.50;99.90
4699;DHT22;33708;49.466;11.176;2022-12-07T07:15:29;3.90;99.90
4699;DHT22;33708;49.466;11.176;2022-12-07T07:17:55;3.60;99.90
4699;DHT22;33708;49.466;11.176;2022-12-07T07:20:22;3.60;99.90
4699;DHT22;33708;49.466;11.176;2022-12-07T07:22:48;3.40;99.90
4699;DHT22;33708;49.466;11.176;2022-12-07T07:25:14;3.60;99.90
4699;DHT22;33708;49.466;11.176;2022-12-07T07:27:40;3.70;99.90
4699;DHT22;33708;49.466;11.176;2022-12-07T07:30:07;3.80;99.90
4699;DHT22;33708;49.466;11.176;2022-12-07T07:32:33;3.60;99.90
4699;DHT22;33708;49.466;11.176;2022-12-07T07:34:58;3.50;99.90
4699;DHT22;33708;49.466;11.176;2022-12-07T07:37:24;3.60;99.90
4699;DHT22;33708;49.466;11.176;2022-12-07T07:39:50;3.70;99.90
4699;DHT22;33708;49.466;11.176;2022-12-07T07:42:17;3.80;99.90
4699;DHT22;33708;49.466;11.176;2022-12-07T07:44:42;3.80;99.90
4699;DHT22;33708;49.466;11.176;2022-12-07T07:47:08;3.90;99.90
4699;DHT22;33708;49.466;11.176;2022-12-07T07:49:34;4.00;99.90
4699;DHT22;33708;49.466;11.176;2022-12-07T07:51:59;3.90;99.90
4699;DHT22;33708;49.466;11.176;2022-12-07T07:54:25;4.00;99.90
4699;DHT22;33708;49.466;11.176;2022-12-07T07:56:52;3.90;99.90
4699;DHT22;33708;49.466;11.176;2022-12-07T07:59:18;4.10;99.90
4699;DHT22;33708;49.466;11.176;2022-12-07T08:01:43;4.10;99.90
4699;DHT22;33708;49.466;11.176;2022-12-07T08:04:09;4.00;99.90
4699;DHT22;33708;49.466;11.176;2022-12-07T08:06:35;4.10;99.90
4699;DHT22;33708;49.466;11.176;2022-12-07T08:09:01;4.10;99.90
4699;DHT22;33708;49.466;11.176;2022-12-07T08:11:27;4.10;99.90
4699;DHT22;33708;49.466;11.176;2022-12-07T08:13:53;4.30;99.90
4699;DHT22;33708;49.466;11.176;2022-12-07T08:16:18;4.30;99.90
4699;DHT22;33708;49.466;11.176;2022-12-07T08:18:44;4.40;99.90
4699;DHT22;33708;49.466;11.176;2022-12-07T08:21:12;4.40;99.90
4699;DHT22;33708;49.466;11.176;2022-12-07T08:23:38;4.20;99.90
4699;DHT22;33708;49.466;11.176;2022-12-07T08:26:09;4.20;99.90
4699;DHT22;33708;49.466;11.176;2022-12-07T08:28:35;4.20;99.90
4699;DHT22;33708;49.466;11.176;2022-12-07T08:31:13;4.30;99.90
4699;DHT22;33708;49.466;11.176;2022-12-07T08:33:39;4.30;99.90
4699;DHT22;33708;49.466;11.176;2022-12-07T08:36:08;4.40;99.90
4699;DHT22;33708;49.466;11.176;2022-12-07T08:38:35;4.40;99.90
4699;DHT22;33708;49.466;11.176;2022-12-07T08:41:01;4.50;99.90
4699;DHT22;33708;49.466;11.176;2022-12-07T08:43:26;4.50;99.90
4699;DHT22;33708;49.466;11.176;2022-12-07T08:48:56;4.50;99.90
4699;DHT22;33708;49.466;11.176;2022-12-07T08:51:23;4.40;99.90
4699;DHT22;33708;49.466;11.176;2022-12-07T08:53:50;4.50;99.90
4699;DHT22;33708;49.466;11.176;2022-12-07T08:56:17;4.60;99.90
4699;DHT22;33708;49.466;11.176;2022-12-07T08:58:43;4.70;99.90
4699;DHT22;33708;49.466;11.176;2022-12-07T09:01:08;4.70;99.90
4699;DHT22;33708;49.466;11.176;2022-12-07T09:03:34;4.60;99.90
4699;DHT22;33708;49.466;11.176;2022-12-07T09:06:00;4.40;99.90
4699;DHT22;33708;49.466;11.176;2022-12-07T09:08:39;4.50;99.90
4699;DHT22;33708;49.466;11.176;2022-12-07T09:11:05;4.30;99.90
4699;DHT22;33708;49.466;11.176;2022-12-07T09:13:31;4.50;99.90
4699;DHT22;33708;49.466;11.176;2022-12-07T09:15:56;4.50;99.90
4699;DHT22;33708;49.466;11.176;2022-12-07T09:18:23;4.50;99.90
4699;DHT22;33708;49.466;11.176;2022-12-07T09:20:50;4.40;99.90
4699;DHT22;33708;49.466;11.176;2022-12-07T09:23:15;4.60;99.90
4699;DHT22;33708;49.466;11.176;2022-12-07T09:25:41;4.50;99.90
4699;DHT22;33708;49.466;11.176;2022-12-07T09:28:07;4.60;99.90
4699;DHT22;33708;49.466;11.176;2022-12-07T09:30:32;4.70;99.90
4699;DHT22;33708;49.466;11.176;2022-12-07T09:32:58;4.70;99.90
4699;DHT22;33708;49.466;11.176;2022-12-07T09:35:24;4.50;99.90
4699;DHT22;33708;49.466;11.176;2022-12-07T09:37:50;4.40;99.90
4699;DHT22;33708;49.466;11.176;2022-12-07T09:40:17;4.50;99.90
4699;DHT22;33708;49.466;11.176;2022-12-07T09:42:53;4.40;99.90
4699;DHT22;33708;49.466;11.176;2022-12-07T09:45:24;4.40;99.90
4699;DHT22;33708;49.466;11.176;2022-12-07T09:47:50;4.40;99.90
4699;DHT22;33708;49.466;11.176;2022-12-07T09:50:20;4.50;99.90
4699;DHT22;33708;49.466;11.176;2022-12-07T09:52:47;4.60;99.90
4699;DHT22;33708;49.466;11.176;2022-12-07T09:55:15;4.60;99.90
4699;DHT22;33708;49.466;11.176;2022-12-07T09:57:41;4.50;99.90
4699;DHT22;33708;49.466;11.176;2022-12-07T10:00:16;4.40;99.90
4699;DHT22;33708;49.466;11.176;2022-12-07T10:02:59;4.60;99.90
4699;DHT22;33708;49.466;11.176;2022-12-07T10:07:56;4.60;99.90
4699;DHT22;33708;49.466;11.176;2022-12-07T10:10:30;4.90;99.90
4699;DHT22;33708;49.466;11.176;2022-12-07T10:15:22;4.60;99.90
4699;DHT22;33708;49.466;11.176;2022-12-07T10:17:50;4.60;99.90
4699;DHT22;33708;49.466;11.176;2022-12-07T10:20:26;4.70;99.90
4699;DHT22;33708;49.466;11.176;2022-12-07T10:23:08;4.60;99.90
4699;DHT22;33708;49.466;11.176;2022-12-07T10:25:39;4.70;99.90
4699;DHT22;33708;49.466;11.176;2022-12-07T10:28:15;4.60;99.90
4699;DHT22;33708;49.466;11.176;2022-12-07T10:36:01;4.90;99.90
4699;DHT22;33708;49.466;11.176;2022-12-07T10:38:28;4.90;99.90
4699;DHT22;33708;49.466;11.176;2022-12-07T10:41:07;4.90;99.90
4699;DHT22;33708;49.466;11.176;2022-12-07T10:43:33;5.00;99.90
4699;DHT22;33708;49.466;11.176;2022-12-07T10:49:28;5.00;99.90
4699;DHT22;33708;49.466;11.176;2022-12-07T11:00:24;5.20;99.90
4699;DHT22;33708;49.466;11.176;2022-12-07T11:05:59;5.20;99.90
4699;DHT22;33708;49.466;11.176;2022-12-07T11:11:08;5.20;99.90
4699;DHT22;33708;49.466;11.176;2022-12-07T11:19:11;5.20;99.90
4699;DHT22;33708;49.466;11.176;2022-12-07T11:21:45;5.40;99.90
4699;DHT22;33708;49.466;11.176;2022-12-07T11:24:17;5.40;99.90
4699;DHT22;33708;49.466;11.176;2022-12-07T11:37:34;5.50;99.90
4699;DHT22;33708;49.466;11.176;2022-12-07T11:42:53;5.60;99.90
4699;DHT22;33708;49.466;11.176;2022-12-07T11:45:35;5.60;99.90
4699;DHT22;33708;49.466;11.176;2022-12-07T11:48:25;5.60;99.90
4699;DHT22;33708;49.466;11.176;2022-12-07T11:50:57;5.70;99.90
4699;DHT22;33708;49.466;11.176;2022-12-07T11:53:34;5.60;99.90
4699;DHT22;33708;49.466;11.176;2022-12-07T12:01:58;5.30;99.90
4699;DHT22;33708;49.466;11.176;2022-12-07T12:04:45;5.50;99.90
4699;DHT22;33708;49.466;11.176;2022-12-07T12:07:17;5.40;99.90
4699;DHT22;33708;49.466;11.176;2022-12-07T12:10:16;5.60;99.90
4699;DHT22;33708;49.466;11.176;2022-12-07T12:12:45;5.50;99.90
4699;DHT22;33708;49.466;11.176;2022-12-07T12:18:19;5.60;99.90
4699;DHT22;33708;49.466;11.176;2022-12-07T12:21:10;5.50;99.90
4699;DHT22;33708;49.466;11.176;2022-12-07T12:23:42;5.50;99.90
4699;DHT22;33708;49.466;11.176;2022-12-07T12:26:24;5.40;99.90
4699;DHT22;33708;49.466;11.176;2022-12-07T12:31:34;5.50;99.90
4699;DHT22;33708;49.466;11.176;2022-12-07T12:34:04;5.40;99.90
4699;DHT22;33708;49.466;11.176;2022-12-07T12:39:17;5.50;99.90
4699;DHT22;33708;49.466;11.176;2022-12-07T12:52:01;5.40;99.90
4699;DHT22;33708;49.466;11.176;2022-12-07T12:57:28;5.30;99.90
4699;DHT22;33708;49.466;11.176;2022-12-07T13:28:50;5.10;99.90
4699;DHT22;33708;49.466;11.176;2022-12-07T13:31:30;5.20;99.90
4699;DHT22;33708;49.466;11.176;2022-12-07T13:33:57;5.20;99.90
4699;DHT22;33708;49.466;11.176;2022-12-07T13:36:26;5.10;99.90
4699;DHT22;33708;49.466;11.176;2022-12-07T13:39:11;5.00;99.90
4699;DHT22;33708;49.466;11.176;2022-12-07T13:41:42;5.10;99.90
4699;DHT22;33708;49.466;11.176;2022-12-07T13:44:13;5.10;99.90
4699;DHT22;33708;49.466;11.176;2022-12-07T13:49:22;5.10;99.90
4699;DHT22;33708;49.466;11.176;2022-12-07T13:51:48;5.10;99.90
4699;DHT22;33708;49.466;11.176;2022-12-07T13:54:15;5.20;99.90
4699;DHT22;33708;49.466;11.176;2022-12-07T13:56:41;5.10;99.90
4699;DHT22;33708;49.466;11.176;2022-12-07T13:59:21;5.10;99.90
4699;DHT22;33708;49.466;11.176;2022-12-07T14:01:48;5.10;99.90
4699;DHT22;33708;49.466;11.176;2022-12-07T14:04:31;5.10;99.90
4699;DHT22;33708;49.466;11.176;2022-12-07T14:06:58;5.10;99.90
4699;DHT22;33708;49.466;11.176;2022-12-07T14:09:26;5.10;99.90
4699;DHT22;33708;49.466;11.176;2022-12-07T14:11:54;5.10;99.90
4699;DHT22;33708;49.466;11.176;2022-12-07T14:14:26;5.10;99.90
4699;DHT22;33708;49.466;11.176;2022-12-07T14:17:16;5.10;99.90
4699;DHT22;33708;49.466;11.176;2022-12-07T14:19:53;5.20;99.90
4699;DHT22;33708;49.466;11.176;2022-12-07T14:22:42;5.30;99.90
4699;DHT22;33708;49.466;11.176;2022-12-07T14:25:18;5.20;99.90
4699;DHT22;33708;49.466;11.176;2022-12-07T14:28:03;5.20;99.90
4699;DHT22;33708;49.466;11.176;2022-12-07T14:30:33;5.20;99.90
4699;DHT22;33708;49.466;11.176;2022-12-07T14:33:02;5.20;99.90
4699;DHT22;33708;49.466;11.176;2022-12-07T14:35:28;5.20;99.90
4699;DHT22;33708;49.466;11.176;2022-12-07T14:37:54;5.20;99.90
4699;DHT22;33708;49.466;11.176;2022-12-07T14:40:25;5.10;99.90
4699;DHT22;33708;49.466;11.176;2022-12-07T14:43:11;5.10;99.90
4699;DHT22;33708;49.466;11.176;2022-12-07T14:45:37;5.10;99.90
4699;DHT22;33708;49.466;11.176;2022-12-07T14:48:03;5.20;99.90
4699;DHT22;33708;49.466;11.176;2022-12-07T14:50:29;5.10;99.90
4699;DHT22;33708;49.466;11.176;2022-12-07T14:52:58;5.20;99.90
4699;DHT22;33708;49.466;11.176;2022-12-07T14:55:27;5.10;99.90
4699;DHT22;33708;49.466;11.176;2022-12-07T14:57:54;5.00;99.90
4699;DHT22;33708;49.466;11.176;2022-12-07T15:00:21;4.90;99.90
4699;DHT22;33708;49.466;11.176;2022-12-07T15:02:48;4.70;99.90
4699;DHT22;33708;49.466;11.176;2022-12-07T15:05:14;4.70;1.00
4699;DHT22;33708;49.466;11.176;2022-12-07T15:07:40;4.40;99.90
4699;DHT22;33708;49.466;11.176;2022-12-07T15:10:14;4.30;1.00
4699;DHT22;33708;49.466;11.176;2022-12-07T15:12:41;4.10;99.90
4699;DHT22;33708;49.466;11.176;2022-12-07T15:15:07;4.20;1.00
4699;DHT22;33708;49.466;11.176;2022-12-07T15:17:33;4.20;99.90
4699;DHT22;33708;49.466;11.176;2022-12-07T15:19:59;4.30;99.90
4699;DHT22;33708;49.466;11.176;2022-12-07T15:22:25;4.20;99.90
4699;DHT22;33708;49.466;11.176;2022-12-07T15:24:51;4.20;99.90
4699;DHT22;33708;49.466;11.176;2022-12-07T15:27:16;4.20;99.90
4699;DHT22;33708;49.466;11.176;2022-12-07T15:29:42;4.10;99.90
4699;DHT22;33708;49.466;11.176;2022-12-07T15:32:09;4.10;99.90
4699;DHT22;33708;49.466;11.176;2022-12-07T15:34:34;4.20;99.90
4699;DHT22;33708;49.466;11.176;2022-12-07T15:37:00;4.30;99.90
4699;DHT22;33708;49.466;11.176;2022-12-07T15:39:25;4.30;99.90
4699;DHT22;33708;49.466;11.176;2022-12-07T15:41:51;4.40;99.90
4699;DHT22;33708;49.466;11.176;2022-12-07T15:44:17;4.50;99.90
4699;DHT22;33708;49.466;11.176;2022-12-07T15:47:00;4.60;99.90
4699;DHT22;33708;49.466;11.176;2022-12-07T15:49:27;4.50;99.90
4699;DHT22;33708;49.466;11.176;2022-12-07T15:51:53;4.50;99.90
4699;DHT22;33708;49.466;11.176;2022-12-07T15:54:22;4.60;99.90
4699;DHT22;33708;49.466;11.176;2022-12-07T15:56:48;4.70;99.90
4699;DHT22;33708;49.466;11.176;2022-12-07T15:59:15;4.80;99.90
4699;DHT22;33708;49.466;11.176;2022-12-07T16:01:41;4.60;99.90
4699;DHT22;33708;49.466;11.176;2022-12-07T16:04:06;4.60;99.90
4699;DHT22;33708;49.466;11.176;2022-12-07T16:06:32;4.50;99.90
4699;DHT22;33708;49.466;11.176;2022-12-07T16:08:58;4.50;99.90
4699;DHT22;33708;49.466;11.176;2022-12-07T16:11:23;4.50;99.90
4699;DHT22;33708;49.466;11.176;2022-12-07T16:13:49;4.50;99.90
4699;DHT22;33708;49.466;11.176;2022-12-07T16:16:17;4.60;99.90
4699;DHT22;33708;49.466;11.176;2022-12-07T16:18:44;4.60;99.90
4699;DHT22;33708;49.466;11.176;2022-12-07T16:21:10;4.50;99.90
4699;DHT22;33708;49.466;11.176;2022-12-07T16:23:36;4.60;99.90
4699;DHT22;33708;49.466;11.176;2022-12-07T16:26:10;4.60;99.90
4699;DHT22;33708;49.466;11.176;2022-12-07T16:28:36;4.50;99.90
4699;DHT22;33708;49.466;11.176;2022-12-07T16:31:04;4.60;99.90
4699;DHT22;33708;49.466;11.176;2022-12-07T16:33:30;4.60;99.90
4699;DHT22;33708;49.466;11.176;2022-12-07T16:35:55;4.60;99.90
4699;DHT22;33708;49.466;11.176;2022-12-07T16:38:21;4.70;99.90
4699;DHT22;33708;49.466;11.176;2022-12-07T16:40:47;4.60;99.90
4699;DHT22;33708;49.466;11.176;2022-12-07T16:43:13;4.70;99.90
4699;DHT22;33708;49.466;11.176;2022-12-07T16:45:39;4.80;99.90
4699;DHT22;33708;49.466;11.176;2022-12-07T16:48:05;4.80;99.90
4699;DHT22;33708;49.466;11.176;2022-12-07T16:50:30;4.70;99.90
4699;DHT22;33708;49.466;11.176;2022-12-07T16:52:56;4.70;99.90
4699;DHT22;33708;49.466;11.176;2022-12-07T16:55:22;4.60;99.90
4699;DHT22;33708;49.466;11.176;2022-12-07T16:57:47;4.60;99.90
4699;DHT22;33708;49.466;11.176;2022-12-07T17:00:13;4.50;99.90
4699;DHT22;33708;49.466;11.176;2022-12-07T17:02:39;4.50;99.90
4699;DHT22;33708;49.466;11.176;2022-12-07T17:05:05;4.60;99.90
4699;DHT22;33708;49.466;11.176;2022-12-07T17:07:31;4.60;99.90
4699;DHT22;33708;49.466;11.176;2022-12-07T17:09:57;4.60;99.90
4699;DHT22;33708;49.466;11.176;2022-12-07T17:12:22;4.60;99.90
4699;DHT22;33708;49.466;11.176;2022-12-07T17:14:48;4.60;99.90
4699;DHT22;33708;49.466;11.176;2022-12-07T17:17:32;4.30;99.90
4699;DHT22;33708;49.466;11.176;2022-12-07T17:19:58;4.30;99.90
4699;DHT22;33708;49.466;11.176;2022-12-07T17:22:23;4.30;99.90
4699;DHT22;33708;49.466;11.176;2022-12-07T17:24:49;4.30;99.90
4699;DHT22;33708;49.466;11.176;2022-12-07T17:27:15;4.20;99.90
4699;DHT22;33708;49.466;11.176;2022-12-07T17:29:41;4.20;99.90
4699;DHT22;33708;49.466;11.176;2022-12-07T17:32:07;4.10;99.90
4699;DHT22;33708;49.466;11.176;2022-12-07T17:34:33;4.20;99.90
4699;DHT22;33708;49.466;11.176;2022-12-07T17:36:59;4.30;99.90
4699;DHT22;33708;49.466;11.176;2022-12-07T17:39:25;4.40;99.90
4699;DHT22;33708;49.466;11.176;2022-12-07T17:41:50;4.40;99.90
4699;DHT22;33708;49.466;11.176;2022-12-07T17:44:38;4.50;99.90
4699;DHT22;33708;49.466;11.176;2022-12-07T17:47:03;4.60;99.90
4699;DHT22;33708;49.466;11.176;2022-12-07T17:49:30;4.60;99.90
4699;DHT22;33708;49.466;11.176;2022-12-07T17:51:56;4.60;99.90
4699;DHT22;33708;49.466;11.176;2022-12-07T17:54:40;4.50;99.90
4699;DHT22;33708;49.466;11.176;2022-12-07T17:57:06;4.30;99.90
4699;DHT22;33708;49.466;11.176;2022-12-07T17:59:32;4.20;99.90
4699;DHT22;33708;49.466;11.176;2022-12-07T18:01:58;4.00;99.90
4699;DHT22;33708;49.466;11.176;2022-12-07T18:04:24;3.90;99.90
4699;DHT22;33708;49.466;11.176;2022-12-07T18:06:49;3.90;99.90
4699;DHT22;33708;49.466;11.176;2022-12-07T18:09:15;4.00;99.90
4699;DHT22;33708;49.466;11.176;2022-12-07T18:11:41;4.00;99.90
4699;DHT22;33708;49.466;11.176;2022-12-07T18:14:06;4.10;99.90
4699;DHT22;33708;49.466;11.176;2022-12-07T18:16:33;4.20;99.90
4699;DHT22;33708;49.466;11.176;2022-12-07T18:19:04;4.20;99.90
4699;DHT22;33708;49.466;11.176;2022-12-07T18:21:30;4.20;99.90
4699;DHT22;33708;49.466;11.176;2022-12-07T18:24:01;4.10;99.90
4699;DHT22;33708;49.466;11.176;2022-12-07T18:26:28;4.10;99.90
4699;DHT22;33708;49.466;11.176;2022-12-07T18:28:55;4.20;99.90